Aérodrome :







RETROUVEZ-NOUS SUR...

 
LOGIN :

S'inscrire | Disclaimer

   EN    FR    IT 

 









Légende :    VFR   VFR Marginal   IFR   IFR Intensif   IFR Très Intensif
Visi : 
Plafond : 
>= 8 km
>= 3000ft
5 à 8 km
1000 à 3000 ft
1500m à 5 km
500 à 1000 ft
800 à 1500m
200 à 500 ft
< 800m
< 200 ft
Symboles :   Orages  Brouillard  Fortes neiges  Fortes précipitations  Vent > 20 kt






- Altitude de l'aérodrome : 100 ft
- Code IATA : PSM


KPSM - Portsmouth International at Pease

DERNIER METAR :
  • 231456Z 27012KT 10SM FEW130 21/06 A2968 RMK AO2A SLP053 T02090064 58003

METARs EXPIRÉS :
  • 231356Z 26011KT 10SM FEW130 17/07 A2969 RMK AO2A SLP056 T01670068
  • 231256Z 26009KT 10SM SCT130 15/06 A2969 RMK AO2A SLP056 T01460062

TAF KPSM
Valide du 23 à 14h jusqu'au 24 à 12h UTC


231426Z 2314/2412 26012KT P6SM FEW130
FM231700 30011G18KT P6SM FEW100
FM232300 29006KT P6SM SKC
FIR KZBW / Amérique du Nord



MET'MAP, la Météo Aéronautique d'un coup d'oeil ! - Copyright ORBIFLY Décembre 2007 - Disclaimer

ORBIFLY MET'MAP TEAM :

Programmation & Développement : Alexandra Zaïnal
Sur une idée originale de : Baudouin d'Aumeries
Assistance à la programmation : Marc-Olivier Méhu
Soutien technique & logistique : Manuel Goepfert

Contact : metmap@orbifly.com




SOURCES & CREDITS :

   NOAA